sensor_id;sensor_type;location;lat;lon;timestamp;temperature;humidity
67275;DHT22;55463;52.324;5.122;2022-12-20T00:01:49;9.90;87.22
67275;DHT22;55463;52.324;5.122;2022-12-20T00:04:14;9.89;87.30
67275;DHT22;55463;52.324;5.122;2022-12-20T00:06:40;9.87;87.40
67275;DHT22;55463;52.324;5.122;2022-12-20T00:09:07;9.90;87.20
67275;DHT22;55463;52.324;5.122;2022-12-20T00:11:34;9.93;87.06
67275;DHT22;55463;52.324;5.122;2022-12-20T00:13:59;9.94;87.19
67275;DHT22;55463;52.324;5.122;2022-12-20T00:16:27;9.94;86.96
67275;DHT22;55463;52.324;5.122;2022-12-20T00:18:58;9.94;86.99
67275;DHT22;55463;52.324;5.122;2022-12-20T00:21:25;9.90;86.99
67275;DHT22;55463;52.324;5.122;2022-12-20T00:23:51;9.93;86.86
67275;DHT22;55463;52.324;5.122;2022-12-20T00:26:20;9.94;86.80
67275;DHT22;55463;52.324;5.122;2022-12-20T00:28:46;9.94;86.67
67275;DHT22;55463;52.324;5.122;2022-12-20T00:31:14;9.93;86.74
67275;DHT22;55463;52.324;5.122;2022-12-20T00:33:41;9.94;86.73
67275;DHT22;55463;52.324;5.122;2022-12-20T00:36:08;9.93;86.60
67275;DHT22;55463;52.324;5.122;2022-12-20T00:38:34;9.95;86.66
67275;DHT22;55463;52.324;5.122;2022-12-20T00:41:05;9.94;86.81
67275;DHT22;55463;52.324;5.122;2022-12-20T00:43:32;9.95;86.71
67275;DHT22;55463;52.324;5.122;2022-12-20T00:45:57;9.91;86.70
67275;DHT22;55463;52.324;5.122;2022-12-20T00:48:23;9.91;86.69
67275;DHT22;55463;52.324;5.122;2022-12-20T00:50:50;9.93;86.78
67275;DHT22;55463;52.324;5.122;2022-12-20T00:53:15;9.94;87.27
67275;DHT22;55463;52.324;5.122;2022-12-20T00:55:42;9.91;87.25
67275;DHT22;55463;52.324;5.122;2022-12-20T00:58:08;9.97;86.86
67275;DHT22;55463;52.324;5.122;2022-12-20T01:00:34;9.98;86.86
67275;DHT22;55463;52.324;5.122;2022-12-20T01:02:59;10.00;86.82
67275;DHT22;55463;52.324;5.122;2022-12-20T01:05:24;10.00;86.90
67275;DHT22;55463;52.324;5.122;2022-12-20T01:07:50;10.02;86.89
67275;DHT22;55463;52.324;5.122;2022-12-20T01:10:15;9.98;86.85
67275;DHT22;55463;52.324;5.122;2022-12-20T01:12:42;10.02;86.77
67275;DHT22;55463;52.324;5.122;2022-12-20T01:15:08;10.04;87.08
67275;DHT22;55463;52.324;5.122;2022-12-20T01:17:33;10.01;87.74
67275;DHT22;55463;52.324;5.122;2022-12-20T01:19:59;10.00;87.80
67275;DHT22;55463;52.324;5.122;2022-12-20T01:22:24;9.98;88.46
67275;DHT22;55463;52.324;5.122;2022-12-20T01:24:49;9.94;88.45
67275;DHT22;55463;52.324;5.122;2022-12-20T01:27:15;9.93;88.80
67275;DHT22;55463;52.324;5.122;2022-12-20T01:29:40;9.93;89.09
67275;DHT22;55463;52.324;5.122;2022-12-20T01:32:05;9.95;89.29
67275;DHT22;55463;52.324;5.122;2022-12-20T01:34:31;9.91;90.04
67275;DHT22;55463;52.324;5.122;2022-12-20T01:36:56;9.93;90.29
67275;DHT22;55463;52.324;5.122;2022-12-20T01:39:21;9.94;91.11
67275;DHT22;55463;52.324;5.122;2022-12-20T01:41:48;9.90;91.97
67275;DHT22;55463;52.324;5.122;2022-12-20T01:46:43;9.80;92.90
67275;DHT22;55463;52.324;5.122;2022-12-20T01:51:49;9.67;93.92
67275;DHT22;55463;52.324;5.122;2022-12-20T01:54:20;9.66;94.23
67275;DHT22;55463;52.324;5.122;2022-12-20T01:56:50;9.69;94.37
67275;DHT22;55463;52.324;5.122;2022-12-20T01:59:16;9.69;94.39
67275;DHT22;55463;52.324;5.122;2022-12-20T02:01:42;9.70;94.63
67275;DHT22;55463;52.324;5.122;2022-12-20T02:04:08;9.70;94.71
67275;DHT22;55463;52.324;5.122;2022-12-20T02:06:34;9.72;94.97
67275;DHT22;55463;52.324;5.122;2022-12-20T02:09:01;9.72;95.08
67275;DHT22;55463;52.324;5.122;2022-12-20T02:17:30;9.80;94.92
67275;DHT22;55463;52.324;5.122;2022-12-20T02:31:24;9.95;93.71
67275;DHT22;55463;52.324;5.122;2022-12-20T02:33:51;9.91;93.73
67275;DHT22;55463;52.324;5.122;2022-12-20T02:36:17;9.91;93.66
67275;DHT22;55463;52.324;5.122;2022-12-20T02:38:43;9.91;93.60
67275;DHT22;55463;52.324;5.122;2022-12-20T02:41:17;9.91;93.52
67275;DHT22;55463;52.324;5.122;2022-12-20T02:43:48;9.93;93.66
67275;DHT22;55463;52.324;5.122;2022-12-20T02:46:33;9.93;93.84
67275;DHT22;55463;52.324;5.122;2022-12-20T02:49:03;9.94;93.91
67275;DHT22;55463;52.324;5.122;2022-12-20T02:51:31;9.94;94.05
67275;DHT22;55463;52.324;5.122;2022-12-20T02:53:58;9.95;93.95
67275;DHT22;55463;52.324;5.122;2022-12-20T02:56:27;10.00;93.72
67275;DHT22;55463;52.324;5.122;2022-12-20T02:59:11;9.98;93.86
67275;DHT22;55463;52.324;5.122;2022-12-20T03:01:41;10.02;93.64
67275;DHT22;55463;52.324;5.122;2022-12-20T03:04:08;10.01;93.67
67275;DHT22;55463;52.324;5.122;2022-12-20T03:06:34;10.04;93.43
67275;DHT22;55463;52.324;5.122;2022-12-20T03:08:59;10.05;93.30
67275;DHT22;55463;52.324;5.122;2022-12-20T03:11:25;10.07;93.11
67275;DHT22;55463;52.324;5.122;2022-12-20T03:13:50;10.17;92.60
67275;DHT22;55463;52.324;5.122;2022-12-20T03:16:15;10.17;92.70
67275;DHT22;55463;52.324;5.122;2022-12-20T03:18:41;10.19;92.44
67275;DHT22;55463;52.324;5.122;2022-12-20T03:21:07;10.24;92.37
67275;DHT22;55463;52.324;5.122;2022-12-20T03:23:32;10.22;92.32
67275;DHT22;55463;52.324;5.122;2022-12-20T03:25:58;10.19;92.35
67275;DHT22;55463;52.324;5.122;2022-12-20T03:28:23;10.24;92.16
67275;DHT22;55463;52.324;5.122;2022-12-20T03:30:48;10.27;92.03
67275;DHT22;55463;52.324;5.122;2022-12-20T03:33:14;10.21;92.09
67275;DHT22;55463;52.324;5.122;2022-12-20T03:35:39;10.27;91.95
67275;DHT22;55463;52.324;5.122;2022-12-20T03:38:05;10.31;91.66
67275;DHT22;55463;52.324;5.122;2022-12-20T03:40:30;10.31;91.66
67275;DHT22;55463;52.324;5.122;2022-12-20T03:42:56;10.35;91.62
67275;DHT22;55463;52.324;5.122;2022-12-20T03:45:21;10.39;91.31
67275;DHT22;55463;52.324;5.122;2022-12-20T03:47:46;10.44;91.25
67275;DHT22;55463;52.324;5.122;2022-12-20T03:50:12;10.44;91.02
67275;DHT22;55463;52.324;5.122;2022-12-20T03:52:37;10.45;90.94
67275;DHT22;55463;52.324;5.122;2022-12-20T03:55:03;10.45;91.18
67275;DHT22;55463;52.324;5.122;2022-12-20T03:57:29;10.45;91.11
67275;DHT22;55463;52.324;5.122;2022-12-20T03:59:54;10.49;90.85
67275;DHT22;55463;52.324;5.122;2022-12-20T04:02:20;10.45;91.02
67275;DHT22;55463;52.324;5.122;2022-12-20T04:04:46;10.52;90.91
67275;DHT22;55463;52.324;5.122;2022-12-20T04:07:12;10.48;90.76
67275;DHT22;55463;52.324;5.122;2022-12-20T04:09:37;10.46;90.65
67275;DHT22;55463;52.324;5.122;2022-12-20T04:12:03;10.49;90.69
67275;DHT22;55463;52.324;5.122;2022-12-20T04:14:29;10.45;90.86
67275;DHT22;55463;52.324;5.122;2022-12-20T04:16:54;10.44;90.79
67275;DHT22;55463;52.324;5.122;2022-12-20T04:19:19;10.39;90.75
67275;DHT22;55463;52.324;5.122;2022-12-20T04:21:45;10.41;90.78
67275;DHT22;55463;52.324;5.122;2022-12-20T04:24:10;10.41;90.68
67275;DHT22;55463;52.324;5.122;2022-12-20T04:26:36;10.44;90.67
67275;DHT22;55463;52.324;5.122;2022-12-20T04:29:02;10.42;90.69
67275;DHT22;55463;52.324;5.122;2022-12-20T04:31:27;10.35;90.85
67275;DHT22;55463;52.324;5.122;2022-12-20T04:33:52;10.35;91.05
67275;DHT22;55463;52.324;5.122;2022-12-20T04:36:18;10.32;91.06
67275;DHT22;55463;52.324;5.122;2022-12-20T04:38:43;10.32;91.15
67275;DHT22;55463;52.324;5.122;2022-12-20T04:41:09;10.32;91.22
67275;DHT22;55463;52.324;5.122;2022-12-20T04:43:35;10.35;91.27
67275;DHT22;55463;52.324;5.122;2022-12-20T04:46:00;10.28;91.29
67275;DHT22;55463;52.324;5.122;2022-12-20T04:48:26;10.32;91.43
67275;DHT22;55463;52.324;5.122;2022-12-20T04:50:54;10.29;91.52
67275;DHT22;55463;52.324;5.122;2022-12-20T04:53:20;10.32;91.66
67275;DHT22;55463;52.324;5.122;2022-12-20T04:56:04;10.32;91.99
67275;DHT22;55463;52.324;5.122;2022-12-20T04:58:30;10.28;92.35
67275;DHT22;55463;52.324;5.122;2022-12-20T05:00:55;10.27;92.77
67275;DHT22;55463;52.324;5.122;2022-12-20T05:03:22;10.22;93.10
67275;DHT22;55463;52.324;5.122;2022-12-20T05:05:48;10.21;93.15
67275;DHT22;55463;52.324;5.122;2022-12-20T05:08:14;10.21;93.09
67275;DHT22;55463;52.324;5.122;2022-12-20T05:10:40;10.22;93.26
67275;DHT22;55463;52.324;5.122;2022-12-20T05:13:05;10.21;93.38
67275;DHT22;55463;52.324;5.122;2022-12-20T05:15:32;10.22;94.05
67275;DHT22;55463;52.324;5.122;2022-12-20T05:17:58;10.22;94.19
67275;DHT22;55463;52.324;5.122;2022-12-20T05:20:29;10.21;94.58
67275;DHT22;55463;52.324;5.122;2022-12-20T05:22:55;10.18;95.07
67275;DHT22;55463;52.324;5.122;2022-12-20T05:25:48;10.18;95.32
67275;DHT22;55463;52.324;5.122;2022-12-20T05:28:33;10.18;95.55
67275;DHT22;55463;52.324;5.122;2022-12-20T05:30:59;10.11;95.77
67275;DHT22;55463;52.324;5.122;2022-12-20T05:33:24;10.12;96.01
67275;DHT22;55463;52.324;5.122;2022-12-20T05:35:50;10.12;96.23
67275;DHT22;55463;52.324;5.122;2022-12-20T05:38:15;10.11;96.67
67275;DHT22;55463;52.324;5.122;2022-12-20T05:40:41;10.10;96.79
67275;DHT22;55463;52.324;5.122;2022-12-20T05:43:06;10.08;96.92
67275;DHT22;55463;52.324;5.122;2022-12-20T05:45:32;10.11;97.08
67275;DHT22;55463;52.324;5.122;2022-12-20T05:47:58;10.12;96.92
67275;DHT22;55463;52.324;5.122;2022-12-20T05:50:23;10.12;96.84
67275;DHT22;55463;52.324;5.122;2022-12-20T05:52:49;10.12;96.89
67275;DHT22;55463;52.324;5.122;2022-12-20T05:55:14;10.14;96.77
67275;DHT22;55463;52.324;5.122;2022-12-20T05:57:40;10.21;96.58
67275;DHT22;55463;52.324;5.122;2022-12-20T06:00:06;10.21;96.51
67275;DHT22;55463;52.324;5.122;2022-12-20T06:02:32;10.22;96.42
67275;DHT22;55463;52.324;5.122;2022-12-20T06:04:58;10.25;96.28
67275;DHT22;55463;52.324;5.122;2022-12-20T06:07:24;10.25;96.14
67275;DHT22;55463;52.324;5.122;2022-12-20T06:09:49;10.27;96.18
67275;DHT22;55463;52.324;5.122;2022-12-20T06:12:15;10.31;96.06
67275;DHT22;55463;52.324;5.122;2022-12-20T06:14:40;10.28;96.01
67275;DHT22;55463;52.324;5.122;2022-12-20T06:17:05;10.31;95.93
67275;DHT22;55463;52.324;5.122;2022-12-20T06:19:31;10.25;95.85
67275;DHT22;55463;52.324;5.122;2022-12-20T06:21:56;10.28;95.68
67275;DHT22;55463;52.324;5.122;2022-12-20T06:24:22;10.32;95.32
67275;DHT22;55463;52.324;5.122;2022-12-20T06:26:50;10.32;95.18
67275;DHT22;55463;52.324;5.122;2022-12-20T06:29:15;10.35;94.87
67275;DHT22;55463;52.324;5.122;2022-12-20T06:31:42;10.41;94.47
67275;DHT22;55463;52.324;5.122;2022-12-20T06:34:07;10.44;94.02
67275;DHT22;55463;52.324;5.122;2022-12-20T06:36:33;10.49;93.73
67275;DHT22;55463;52.324;5.122;2022-12-20T06:38:58;10.53;93.27
67275;DHT22;55463;52.324;5.122;2022-12-20T06:41:24;10.56;92.94
67275;DHT22;55463;52.324;5.122;2022-12-20T06:43:49;10.63;92.35
67275;DHT22;55463;52.324;5.122;2022-12-20T06:46:14;10.67;91.93
67275;DHT22;55463;52.324;5.122;2022-12-20T06:48:40;10.69;91.57
67275;DHT22;55463;52.324;5.122;2022-12-20T06:51:05;10.76;91.23
67275;DHT22;55463;52.324;5.122;2022-12-20T06:53:30;10.80;90.91
67275;DHT22;55463;52.324;5.122;2022-12-20T06:55:56;10.80;90.80
67275;DHT22;55463;52.324;5.122;2022-12-20T06:58:21;10.90;90.35
67275;DHT22;55463;52.324;5.122;2022-12-20T07:00:47;10.89;90.17
67275;DHT22;55463;52.324;5.122;2022-12-20T07:03:12;10.94;89.80
67275;DHT22;55463;52.324;5.122;2022-12-20T07:05:38;10.99;89.73
67275;DHT22;55463;52.324;5.122;2022-12-20T07:08:04;10.99;89.73
67275;DHT22;55463;52.324;5.122;2022-12-20T07:10:32;11.03;89.38
67275;DHT22;55463;52.324;5.122;2022-12-20T07:12:58;11.01;89.39
67275;DHT22;55463;52.324;5.122;2022-12-20T07:15:23;11.06;89.21
67275;DHT22;55463;52.324;5.122;2022-12-20T07:17:48;11.04;89.04
67275;DHT22;55463;52.324;5.122;2022-12-20T07:20:14;11.04;89.22
67275;DHT22;55463;52.324;5.122;2022-12-20T07:22:40;11.04;88.96
67275;DHT22;55463;52.324;5.122;2022-12-20T07:25:06;11.06;88.83
67275;DHT22;55463;52.324;5.122;2022-12-20T07:27:31;11.08;88.63
67275;DHT22;55463;52.324;5.122;2022-12-20T07:29:56;11.07;88.54
67275;DHT22;55463;52.324;5.122;2022-12-20T07:32:22;11.07;88.65
67275;DHT22;55463;52.324;5.122;2022-12-20T07:34:47;11.07;88.56
67275;DHT22;55463;52.324;5.122;2022-12-20T07:37:12;11.07;88.53
67275;DHT22;55463;52.324;5.122;2022-12-20T07:39:38;11.06;88.35
67275;DHT22;55463;52.324;5.122;2022-12-20T07:42:03;11.08;88.29
67275;DHT22;55463;52.324;5.122;2022-12-20T07:44:29;11.14;88.01
67275;DHT22;55463;52.324;5.122;2022-12-20T07:46:54;11.14;88.05
67275;DHT22;55463;52.324;5.122;2022-12-20T07:49:20;11.21;87.82
67275;DHT22;55463;52.324;5.122;2022-12-20T07:51:51;11.21;87.77
67275;DHT22;55463;52.324;5.122;2022-12-20T07:54:30;11.21;87.72
67275;DHT22;55463;52.324;5.122;2022-12-20T07:56:58;11.24;88.23
67275;DHT22;55463;52.324;5.122;2022-12-20T07:59:28;11.19;88.13
67275;DHT22;55463;52.324;5.122;2022-12-20T08:01:55;11.15;88.53
67275;DHT22;55463;52.324;5.122;2022-12-20T08:04:24;11.11;89.04
67275;DHT22;55463;52.324;5.122;2022-12-20T08:06:53;11.03;89.81
67275;DHT22;55463;52.324;5.122;2022-12-20T08:09:20;10.91;90.19
67275;DHT22;55463;52.324;5.122;2022-12-20T08:11:47;10.85;90.43
67275;DHT22;55463;52.324;5.122;2022-12-20T08:14:15;10.83;90.64
67275;DHT22;55463;52.324;5.122;2022-12-20T08:16:41;10.87;90.63
67275;DHT22;55463;52.324;5.122;2022-12-20T08:19:07;10.79;91.32
67275;DHT22;55463;52.324;5.122;2022-12-20T08:21:33;10.73;91.67
67275;DHT22;55463;52.324;5.122;2022-12-20T08:23:58;10.62;92.38
67275;DHT22;55463;52.324;5.122;2022-12-20T08:26:24;10.57;92.67
67275;DHT22;55463;52.324;5.122;2022-12-20T08:28:49;10.49;93.72
67275;DHT22;55463;52.324;5.122;2022-12-20T08:31:14;10.41;94.35
67275;DHT22;55463;52.324;5.122;2022-12-20T08:33:40;10.35;94.35
67275;DHT22;55463;52.324;5.122;2022-12-20T08:36:08;10.31;94.54
67275;DHT22;55463;52.324;5.122;2022-12-20T08:38:34;10.27;94.82
67275;DHT22;55463;52.324;5.122;2022-12-20T08:41:03;10.25;94.84
67275;DHT22;55463;52.324;5.122;2022-12-20T08:43:30;10.25;94.86
67275;DHT22;55463;52.324;5.122;2022-12-20T08:45:55;10.22;95.24
67275;DHT22;55463;52.324;5.122;2022-12-20T08:48:21;10.24;94.81
67275;DHT22;55463;52.324;5.122;2022-12-20T08:50:52;10.25;94.81
67275;DHT22;55463;52.324;5.122;2022-12-20T08:53:17;10.19;95.19
67275;DHT22;55463;52.324;5.122;2022-12-20T08:55:43;10.17;95.31
67275;DHT22;55463;52.324;5.122;2022-12-20T08:58:08;10.17;95.35
67275;DHT22;55463;52.324;5.122;2022-12-20T09:00:35;10.12;95.25
67275;DHT22;55463;52.324;5.122;2022-12-20T09:03:00;10.11;95.53
67275;DHT22;55463;52.324;5.122;2022-12-20T09:05:25;10.10;95.64
67275;DHT22;55463;52.324;5.122;2022-12-20T09:07:51;10.08;95.65
67275;DHT22;55463;52.324;5.122;2022-12-20T09:10:16;10.08;95.55
67275;DHT22;55463;52.324;5.122;2022-12-20T09:12:41;10.08;95.15
67275;DHT22;55463;52.324;5.122;2022-12-20T09:15:07;10.08;95.14
67275;DHT22;55463;52.324;5.122;2022-12-20T09:17:33;10.12;95.24
67275;DHT22;55463;52.324;5.122;2022-12-20T09:19:58;10.07;95.14
67275;DHT22;55463;52.324;5.122;2022-12-20T09:22:24;10.04;95.52
67275;DHT22;55463;52.324;5.122;2022-12-20T09:24:49;10.04;95.90
67275;DHT22;55463;52.324;5.122;2022-12-20T09:27:14;10.00;96.20
67275;DHT22;55463;52.324;5.122;2022-12-20T09:29:40;9.97;96.46
67275;DHT22;55463;52.324;5.122;2022-12-20T09:32:05;9.91;96.84
67275;DHT22;55463;52.324;5.122;2022-12-20T09:34:31;9.93;97.11
67275;DHT22;55463;52.324;5.122;2022-12-20T09:36:56;9.87;97.43
67275;DHT22;55463;52.324;5.122;2022-12-20T09:39:22;9.86;97.69
67275;DHT22;55463;52.324;5.122;2022-12-20T09:41:47;9.86;97.89
67275;DHT22;55463;52.324;5.122;2022-12-20T09:46:43;9.82;98.42
67275;DHT22;55463;52.324;5.122;2022-12-20T09:49:14;9.83;98.43
67275;DHT22;55463;52.324;5.122;2022-12-20T09:57:35;9.79;99.04
67275;DHT22;55463;52.324;5.122;2022-12-20T10:00:12;9.87;98.73
67275;DHT22;55463;52.324;5.122;2022-12-20T10:02:38;9.87;99.00
67275;DHT22;55463;52.324;5.122;2022-12-20T10:05:04;9.86;99.06
67275;DHT22;55463;52.324;5.122;2022-12-20T10:07:40;9.93;99.05
67275;DHT22;55463;52.324;5.122;2022-12-20T10:10:35;9.93;99.22
67275;DHT22;55463;52.324;5.122;2022-12-20T10:16:41;9.95;99.29
67275;DHT22;55463;52.324;5.122;2022-12-20T10:19:43;9.97;99.10
67275;DHT22;55463;52.324;5.122;2022-12-20T10:22:13;10.02;99.20
67275;DHT22;55463;52.324;5.122;2022-12-20T10:24:44;9.97;99.25
67275;DHT22;55463;52.324;5.122;2022-12-20T10:27:19;10.01;99.19
67275;DHT22;55463;52.324;5.122;2022-12-20T10:29:47;10.04;99.24
67275;DHT22;55463;52.324;5.122;2022-12-20T10:32:22;10.07;99.18
67275;DHT22;55463;52.324;5.122;2022-12-20T10:34:56;10.02;99.35
67275;DHT22;55463;52.324;5.122;2022-12-20T10:37:23;10.02;99.42
67275;DHT22;55463;52.324;5.122;2022-12-20T10:39:50;10.02;99.28
67275;DHT22;55463;52.324;5.122;2022-12-20T10:45:00;10.05;99.34
67275;DHT22;55463;52.324;5.122;2022-12-20T10:47:39;10.08;99.25
67275;DHT22;55463;52.324;5.122;2022-12-20T10:50:14;10.10;99.28
67275;DHT22;55463;52.324;5.122;2022-12-20T10:52:41;10.08;99.34
67275;DHT22;55463;52.324;5.122;2022-12-20T10:55:45;10.07;99.42
67275;DHT22;55463;52.324;5.122;2022-12-20T10:58:41;10.07;99.38
67275;DHT22;55463;52.324;5.122;2022-12-20T11:01:18;10.05;99.44
67275;DHT22;55463;52.324;5.122;2022-12-20T11:03:53;10.07;99.39
67275;DHT22;55463;52.324;5.122;2022-12-20T11:06:22;10.08;99.46
67275;DHT22;55463;52.324;5.122;2022-12-20T11:08:48;10.07;99.57
67275;DHT22;55463;52.324;5.122;2022-12-20T11:11:18;10.04;99.66
67275;DHT22;55463;52.324;5.122;2022-12-20T11:13:45;10.04;99.71
67275;DHT22;55463;52.324;5.122;2022-12-20T11:16:33;10.02;99.99
67275;DHT22;55463;52.324;5.122;2022-12-20T11:27:47;10.00;99.99
67275;DHT22;55463;52.324;5.122;2022-12-20T11:35:24;9.98;99.99
67275;DHT22;55463;52.324;5.122;2022-12-20T11:38:19;9.98;99.99
67275;DHT22;55463;52.324;5.122;2022-12-20T11:40:54;10.01;99.99
67275;DHT22;55463;52.324;5.122;2022-12-20T11:46:13;10.04;99.99
67275;DHT22;55463;52.324;5.122;2022-12-20T11:51:47;10.05;99.99
67275;DHT22;55463;52.324;5.122;2022-12-20T11:54:20;10.05;99.99
67275;DHT22;55463;52.324;5.122;2022-12-20T11:56:50;10.08;99.99
67275;DHT22;55463;52.324;5.122;2022-12-20T12:01:54;10.05;99.99
67275;DHT22;55463;52.324;5.122;2022-12-20T12:04:25;10.08;99.99
67275;DHT22;55463;52.324;5.122;2022-12-20T12:07:01;10.10;99.99
67275;DHT22;55463;52.324;5.122;2022-12-20T12:12:08;10.07;99.99
67275;DHT22;55463;52.324;5.122;2022-12-20T12:14:37;10.07;99.99
67275;DHT22;55463;52.324;5.122;2022-12-20T12:17:11;10.07;99.99
67275;DHT22;55463;52.324;5.122;2022-12-20T12:19:41;10.05;99.99
67275;DHT22;55463;52.324;5.122;2022-12-20T12:22:14;10.04;99.99
67275;DHT22;55463;52.324;5.122;2022-12-20T12:24:45;10.07;99.99
67275;DHT22;55463;52.324;5.122;2022-12-20T12:27:24;10.02;99.99
67275;DHT22;55463;52.324;5.122;2022-12-20T12:29:51;10.02;99.99
67275;DHT22;55463;52.324;5.122;2022-12-20T12:32:46;10.01;99.99
67275;DHT22;55463;52.324;5.122;2022-12-20T12:35:44;10.05;99.99
67275;DHT22;55463;52.324;5.122;2022-12-20T12:38:49;10.02;99.99
67275;DHT22;55463;52.324;5.122;2022-12-20T12:44:30;10.02;99.99
67275;DHT22;55463;52.324;5.122;2022-12-20T12:50:02;10.05;99.99
67275;DHT22;55463;52.324;5.122;2022-12-20T12:52:41;10.05;99.99
67275;DHT22;55463;52.324;5.122;2022-12-20T12:55:38;10.07;99.99
67275;DHT22;55463;52.324;5.122;2022-12-20T13:03:43;10.10;99.99
67275;DHT22;55463;52.324;5.122;2022-12-20T13:11:30;10.14;99.99
67275;DHT22;55463;52.324;5.122;2022-12-20T13:16:51;10.15;99.99
67275;DHT22;55463;52.324;5.122;2022-12-20T13:19:28;10.15;99.99
67275;DHT22;55463;52.324;5.122;2022-12-20T13:25:03;10.17;99.99
67275;DHT22;55463;52.324;5.122;2022-12-20T13:27:48;10.15;99.99
67275;DHT22;55463;52.324;5.122;2022-12-20T13:38:04;10.25;99.99
67275;DHT22;55463;52.324;5.122;2022-12-20T13:41:44;10.27;99.99
67275;DHT22;55463;52.324;5.122;2022-12-20T13:46:53;10.27;99.99
67275;DHT22;55463;52.324;5.122;2022-12-20T13:49:33;10.28;99.99
67275;DHT22;55463;52.324;5.122;2022-12-20T13:52:21;10.28;99.99
67275;DHT22;55463;52.324;5.122;2022-12-20T13:54:52;10.28;99.99
67275;DHT22;55463;52.324;5.122;2022-12-20T13:57:28;10.28;99.99
67275;DHT22;55463;52.324;5.122;2022-12-20T13:59:55;10.24;99.99
67275;DHT22;55463;52.324;5.122;2022-12-20T14:02:23;10.27;99.99
67275;DHT22;55463;52.324;5.122;2022-12-20T14:07:37;10.28;99.99
67275;DHT22;55463;52.324;5.122;2022-12-20T14:10:11;10.27;99.99
67275;DHT22;55463;52.324;5.122;2022-12-20T14:12:43;10.29;99.99
67275;DHT22;55463;52.324;5.122;2022-12-20T14:15:24;10.27;99.99
67275;DHT22;55463;52.324;5.122;2022-12-20T14:17:49;10.25;99.99
67275;DHT22;55463;52.324;5.122;2022-12-20T14:20:27;10.27;99.99
67275;DHT22;55463;52.324;5.122;2022-12-20T14:26:00;10.27;99.99
67275;DHT22;55463;52.324;5.122;2022-12-20T14:28:43;10.24;99.99
67275;DHT22;55463;52.324;5.122;2022-12-20T14:34:01;10.27;99.99
67275;DHT22;55463;52.324;5.122;2022-12-20T14:36:27;10.27;99.99
67275;DHT22;55463;52.324;5.122;2022-12-20T14:38:54;10.28;99.99
67275;DHT22;55463;52.324;5.122;2022-12-20T14:41:38;10.27;99.99
67275;DHT22;55463;52.324;5.122;2022-12-20T14:46:35;10.25;99.99
67275;DHT22;55463;52.324;5.122;2022-12-20T14:49:32;10.27;99.99
67275;DHT22;55463;52.324;5.122;2022-12-20T14:57:43;10.19;99.99
67275;DHT22;55463;52.324;5.122;2022-12-20T15:08:14;10.12;99.99
67275;DHT22;55463;52.324;5.122;2022-12-20T15:10:42;10.14;99.99
67275;DHT22;55463;52.324;5.122;2022-12-20T15:13:13;10.12;99.99
67275;DHT22;55463;52.324;5.122;2022-12-20T15:15:39;10.10;99.99
67275;DHT22;55463;52.324;5.122;2022-12-20T15:18:11;10.10;99.99
67275;DHT22;55463;52.324;5.122;2022-12-20T15:20:37;10.12;99.99
67275;DHT22;55463;52.324;5.122;2022-12-20T15:23:02;10.15;99.99
67275;DHT22;55463;52.324;5.122;2022-12-20T15:25:29;10.15;99.99
67275;DHT22;55463;52.324;5.122;2022-12-20T15:27:57;10.12;99.99
67275;DHT22;55463;52.324;5.122;2022-12-20T15:30:24;10.15;99.99
67275;DHT22;55463;52.324;5.122;2022-12-20T15:32:50;10.12;99.99
67275;DHT22;55463;52.324;5.122;2022-12-20T15:35:15;10.12;99.99
67275;DHT22;55463;52.324;5.122;2022-12-20T15:37:41;10.08;99.99
67275;DHT22;55463;52.324;5.122;2022-12-20T15:40:09;10.12;99.99
67275;DHT22;55463;52.324;5.122;2022-12-20T15:42:38;10.17;99.99
67275;DHT22;55463;52.324;5.122;2022-12-20T15:45:04;10.12;99.99
67275;DHT22;55463;52.324;5.122;2022-12-20T15:47:32;10.12;99.99
67275;DHT22;55463;52.324;5.122;2022-12-20T15:49:57;10.12;99.99
67275;DHT22;55463;52.324;5.122;2022-12-20T15:52:23;10.11;99.99
67275;DHT22;55463;52.324;5.122;2022-12-20T15:54:49;10.12;99.99
67275;DHT22;55463;52.324;5.122;2022-12-20T15:57:14;10.10;99.99
67275;DHT22;55463;52.324;5.122;2022-12-20T15:59:40;10.08;99.99
67275;DHT22;55463;52.324;5.122;2022-12-20T16:02:22;10.08;99.99
67275;DHT22;55463;52.324;5.122;2022-12-20T16:04:48;10.10;99.99
67275;DHT22;55463;52.324;5.122;2022-12-20T16:07:14;10.08;99.99
67275;DHT22;55463;52.324;5.122;2022-12-20T16:09:42;10.08;99.99
67275;DHT22;55463;52.324;5.122;2022-12-20T16:12:13;10.10;99.99
67275;DHT22;55463;52.324;5.122;2022-12-20T16:14:40;10.07;99.99
67275;DHT22;55463;52.324;5.122;2022-12-20T16:17:12;10.10;99.99
67275;DHT22;55463;52.324;5.122;2022-12-20T16:19:41;10.08;99.99
67275;DHT22;55463;52.324;5.122;2022-12-20T16:22:18;10.10;99.99
67275;DHT22;55463;52.324;5.122;2022-12-20T16:24:44;10.08;99.99
67275;DHT22;55463;52.324;5.122;2022-12-20T16:27:10;10.04;99.99
67275;DHT22;55463;52.324;5.122;2022-12-20T16:29:36;10.08;99.99
67275;DHT22;55463;52.324;5.122;2022-12-20T16:32:10;10.08;99.99
67275;DHT22;55463;52.324;5.122;2022-12-20T16:34:37;10.07;99.99
67275;DHT22;55463;52.324;5.122;2022-12-20T16:37:02;10.04;99.99
67275;DHT22;55463;52.324;5.122;2022-12-20T16:39:29;10.01;99.99
67275;DHT22;55463;52.324;5.122;2022-12-20T16:41:54;10.00;99.99
67275;DHT22;55463;52.324;5.122;2022-12-20T16:44:19;9.97;99.99
67275;DHT22;55463;52.324;5.122;2022-12-20T16:46:45;9.98;99.99
67275;DHT22;55463;52.324;5.122;2022-12-20T16:49:11;9.95;99.99
67275;DHT22;55463;52.324;5.122;2022-12-20T16:51:43;9.94;99.99
67275;DHT22;55463;52.324;5.122;2022-12-20T16:54:18;9.93;99.99
67275;DHT22;55463;52.324;5.122;2022-12-20T16:56:44;9.93;99.99
67275;DHT22;55463;52.324;5.122;2022-12-20T16:59:11;9.89;99.99
67275;DHT22;55463;52.324;5.122;2022-12-20T17:01:38;9.90;99.99
67275;DHT22;55463;52.324;5.122;2022-12-20T17:04:05;9.89;99.99
67275;DHT22;55463;52.324;5.122;2022-12-20T17:06:31;9.89;99.99
67275;DHT22;55463;52.324;5.122;2022-12-20T17:08:58;9.90;99.99
67275;DHT22;55463;52.324;5.122;2022-12-20T17:11:27;9.84;99.99
67275;DHT22;55463;52.324;5.122;2022-12-20T17:13:54;9.86;99.99
67275;DHT22;55463;52.324;5.122;2022-12-20T17:16:21;9.86;99.99
67275;DHT22;55463;52.324;5.122;2022-12-20T17:18:48;9.86;99.99
67275;DHT22;55463;52.324;5.122;2022-12-20T17:21:22;9.84;99.99
67275;DHT22;55463;52.324;5.122;2022-12-20T17:23:49;9.84;99.99
67275;DHT22;55463;52.324;5.122;2022-12-20T17:26:21;9.83;99.99
67275;DHT22;55463;52.324;5.122;2022-12-20T17:28:51;9.80;99.99
67275;DHT22;55463;52.324;5.122;2022-12-20T17:31:36;9.83;99.99
67275;DHT22;55463;52.324;5.122;2022-12-20T17:34:04;9.86;99.99
67275;DHT22;55463;52.324;5.122;2022-12-20T17:36:30;9.83;99.99
67275;DHT22;55463;52.324;5.122;2022-12-20T17:38:55;9.83;99.99
67275;DHT22;55463;52.324;5.122;2022-12-20T17:41:29;9.84;99.99
67275;DHT22;55463;52.324;5.122;2022-12-20T17:43:56;9.87;99.99
67275;DHT22;55463;52.324;5.122;2022-12-20T17:46:23;9.87;99.99